Time;durP1;ratioP1;P1;durP2;ratioP2;P2;SDS_P1;SDS_P2;PMS_P1;PMS_P2;Temp;Humidity;BMP_temperature;BMP_pressure;BME280_temperature;BME280_humidity;BME280_pressure;Samples;Min_cycle;Max_cycle;Signal;HPM_P1;HPM_P2
2024/04/19 00:00:12;;;;;;;14.50;7.70;;;;;;;1.65;75.52;99536.04;103333;1257;111916;-73
2024/04/19 00:02:59;;;;;;;14.00;8.10;;;;;;;1.62;75.62;99537.77;103144;1257;138524;-73
2024/04/19 00:05:25;;;;;;;12.40;8.20;;;;;;;1.59;75.68;99537.95;103304;1255;100266;-72
2024/04/19 00:07:52;;;;;;;13.00;8.30;;;;;;;1.56;75.87;99533.19;102401;1259;1015635;-69
2024/04/19 00:10:19;;;;;;;11.80;8.60;;;;;;;1.54;76.04;99535.09;103334;1254;99177;-72
2024/04/19 00:12:45;;;;;;;11.60;8.70;;;;;;;1.52;76.20;99535.27;103286;1256;112376;-71
2024/04/19 00:15:12;;;;;;;14.80;8.50;;;;;;;1.51;76.28;99530.48;103262;1259;139436;-72
2024/04/19 00:17:38;;;;;;;12.60;8.90;;;;;;;1.50;76.46;99531.52;103204;1257;99206;-72
2024/04/19 00:20:06;;;;;;;10.80;7.70;;;;;;;1.48;76.52;99531.36;103182;1256;138495;-72
2024/04/19 00:22:33;;;;;;;12.00;8.60;;;;;;;1.46;76.56;99530.52;103374;1257;99046;-72
2024/04/19 00:25:00;;;;;;;12.30;8.30;;;;;;;1.45;76.61;99529.69;103291;1256;113607;-73
2024/04/19 00:27:26;;;;;;;13.40;8.50;;;;;;;1.43;76.84;99525.90;103156;1256;138477;-70
2024/04/19 00:29:53;;;;;;;12.10;8.30;;;;;;;1.42;76.86;99525.05;103122;1256;1002884;-73
2024/04/19 00:32:19;;;;;;;12.00;8.40;;;;;;;1.40;76.92;99526.10;103179;1256;139301;-73
2024/04/19 00:34:46;;;;;;;13.20;9.00;;;;;;;1.38;77.03;99522.34;103202;1259;99161;-73
2024/04/19 00:37:12;;;;;;;11.50;8.20;;;;;;;1.38;77.13;99525.60;103382;1255;112940;-72
2024/04/19 00:39:39;;;;;;;13.90;9.20;;;;;;;1.36;77.15;99522.70;103120;1256;139406;-72
2024/04/19 00:42:06;;;;;;;12.50;8.40;;;;;;;1.34;77.28;99522.38;103213;1256;99148;-72
2024/04/19 00:44:33;;;;;;;13.40;9.00;;;;;;;1.30;77.34;99518.46;103212;1256;138240;-72
2024/04/19 00:47:00;;;;;;;12.50;8.20;;;;;;;1.28;77.41;99520.55;103333;1256;99068;-72
2024/04/19 00:49:29;;;;;;;11.40;7.70;;;;;;;1.27;77.51;99519.00;103297;1256;114116;-73
2024/04/19 00:51:57;;;;;;;13.30;8.30;;;;;;;1.26;77.46;99513.70;103115;1256;138564;-73
2024/04/19 00:54:24;;;;;;;11.50;8.50;;;;;;;1.25;77.63;99518.14;103224;1257;99146;-72
2024/04/19 00:56:51;;;;;;;14.40;9.20;;;;;;;1.25;77.48;99521.73;103156;1256;138799;-72
2024/04/19 00:59:18;;;;;;;16.50;9.00;;;;;;;1.23;77.65;99517.64;103297;1256;99131;-72
2024/04/19 01:01:46;;;;;;;11.20;8.10;;;;;;;1.21;77.58;99514.23;103333;1259;112224;-73
2024/04/19 01:04:13;;;;;;;11.40;8.30;;;;;;;1.19;77.60;99514.75;103232;1256;108101;-73
2024/04/19 01:06:40;;;;;;;10.40;7.90;;;;;;;1.19;77.73;99511.33;103504;1259;99545;-73
2024/04/19 01:09:07;;;;;;;10.90;8.00;;;;;;;1.19;77.76;99516.14;103064;1256;138200;-72
2024/04/19 01:11:35;;;;;;;11.70;8.20;;;;;;;1.17;77.83;99507.92;103295;1256;99164;-72
2024/04/19 01:14:01;;;;;;;14.50;8.90;;;;;;;1.17;77.90;99513.58;103170;1256;138541;-72
2024/04/19 01:16:28;;;;;;;12.10;8.60;;;;;;;1.16;77.89;99511.87;103315;1256;107269;-72
2024/04/19 01:18:54;;;;;;;12.20;8.50;;;;;;;1.16;77.98;99511.02;103365;1256;99070;-72
2024/04/19 01:21:22;;;;;;;13.40;8.70;;;;;;;1.17;78.07;99508.95;103584;1256;139188;-72
2024/04/19 01:23:53;;;;;;;11.80;8.90;;;;;;;1.18;77.99;99507.05;103313;1256;99185;-72
2024/04/19 01:26:19;;;;;;;13.10;8.90;;;;;;;1.18;78.16;99506.04;103544;1257;139416;-72
2024/04/19 01:28:46;;;;;;;10.80;8.20;;;;;;;1.18;78.21;99506.55;103356;1257;107846;-73
2024/04/19 01:31:13;;;;;;;14.00;9.00;;;;;;;1.20;78.23;99507.91;103275;1255;99162;-72
2024/04/19 01:33:37;;;;;;;;;;;;;;;1.20;78.28;99505.51;103211;1255;138288;-73
2024/04/19 01:36:05;;;;;;;14.60;9.10;;;;;;;1.17;78.54;99500.22;103248;1256;99206;-73
2024/04/19 01:38:46;;;;;;;14.60;9.70;;;;;;;1.16;78.62;99502.11;103170;1256;138809;-72
2024/04/19 01:41:11;;;;;;;;;;;;;;;1.16;78.60;99502.10;103100;1256;106990;-71
2024/04/19 01:43:37;;;;;;;14.90;10.20;;;;;;;1.14;78.91;99498.53;103273;1256;99176;-72
2024/04/19 01:46:04;;;;;;;16.80;10.50;;;;;;;1.12;79.04;99498.20;103154;1256;138335;-72
2024/04/19 01:48:30;;;;;;;15.30;10.50;;;;;;;1.10;79.26;99497.88;103294;1256;99146;-72
2024/04/19 01:50:57;;;;;;;17.00;11.30;;;;;;;1.10;79.39;99497.02;102435;1259;1002916;-72
2024/04/19 01:53:23;;;;;;;15.50;11.10;;;;;;;1.08;79.44;99495.33;103284;1257;107234;-71
2024/04/19 01:55:50;;;;;;;17.40;11.20;;;;;;;1.07;79.64;99496.16;102571;1256;1003515;-73
2024/04/19 01:58:37;;;;;;;16.00;11.10;;;;;;;1.04;79.66;99497.20;103248;1259;107622;-72
2024/04/19 02:01:03;;;;;;;16.80;11.40;;;;;;;1.01;79.77;99497.91;103218;1257;99047;-72
2024/04/19 02:03:29;;;;;;;16.30;11.40;;;;;;;1.00;79.95;99499.29;103353;1259;138443;-74
2024/04/19 02:06:08;;;;;;;16.10;11.80;;;;;;;1.00;79.96;99497.58;103236;1256;107948;-74
2024/04/19 02:08:34;;;;;;;16.70;11.60;;;;;;;1.01;80.05;99501.67;103121;1259;138907;-73
2024/04/19 02:11:04;;;;;;;16.40;11.50;;;;;;;1.01;80.18;99499.96;103166;1256;107666;-74
2024/04/19 02:13:30;;;;;;;17.10;11.40;;;;;;;1.02;80.18;99496.89;103796;1256;99152;-74
2024/04/19 02:15:58;;;;;;;17.40;11.90;;;;;;;1.02;80.33;99493.29;103110;1256;138939;-74
2024/04/19 02:18:24;;;;;;;17.30;12.40;;;;;;;1.00;80.33;99491.93;103079;1256;112336;-73
2024/04/19 02:20:51;;;;;;;17.80;12.20;;;;;;;0.98;80.41;99494.52;103168;1256;138572;-74
2024/04/19 02:23:17;;;;;;;;;;;;;;;0.97;80.56;99489.05;102568;1259;1002929;-74
2024/04/19 02:25:43;;;;;;;17.30;11.90;;;;;;;0.96;80.67;99487.52;103176;1256;99050;-73
2024/04/19 02:30:59;;;;;;;19.90;12.80;;;;;;;0.92;81.00;99482.75;103216;1257;106786;-72
2024/04/19 02:33:26;;;;;;;22.10;14.00;;;;;;;0.89;81.01;99478.64;103199;1259;138708;-71
2024/04/19 02:35:52;;;;;;;19.40;13.30;;;;;;;0.87;81.11;99477.95;103211;1259;108262;-72
2024/04/19 02:38:19;;;;;;;20.80;13.40;;;;;;;0.86;81.18;99477.11;103167;1259;139126;-71
2024/04/19 02:40:45;;;;;;;19.50;14.20;;;;;;;0.87;81.32;99478.30;103235;1257;113098;-71
2024/04/19 02:43:11;;;;;;;21.90;15.10;;;;;;;0.86;81.29;99474.70;103233;1259;108179;-74
2024/04/19 02:45:57;;;;;;;21.20;15.30;;;;;;;0.86;81.46;99470.27;103125;1256;138227;-74
2024/04/19 02:48:23;;;;;;;23.30;14.90;;;;;;;0.88;81.48;99473.34;103192;1259;108003;-72
2024/04/19 02:50:50;;;;;;;19.30;14.60;;;;;;;0.88;81.47;99470.77;103106;1269;138519;-73
2024/04/19 02:53:17;;;;;;;23.20;15.50;;;;;;;0.88;81.56;99470.77;103271;1258;112635;-73
2024/04/19 02:55:43;;;;;;;21.80;15.50;;;;;;;0.89;81.58;99468.02;103248;1257;107291;-71
2024/04/19 02:58:10;;;;;;;21.40;15.00;;;;;;;0.89;81.58;99466.48;103179;1259;138426;-71
2024/04/19 03:00:39;;;;;;;21.60;16.10;;;;;;;0.85;81.59;99460.17;103169;1259;106440;-72
2024/04/19 03:03:05;;;;;;;24.10;16.30;;;;;;;0.85;81.66;99460.01;103106;1256;138701;-72
2024/04/19 03:05:32;;;;;;;21.80;15.70;;;;;;;0.84;81.66;99463.27;103281;1256;113082;-71
2024/04/19 03:07:58;;;;;;;22.90;16.20;;;;;;;0.82;81.80;99463.27;103063;1256;139354;-70
2024/04/19 03:10:25;;;;;;;22.50;16.00;;;;;;;0.83;81.90;99457.63;103285;1259;99059;-72
2024/04/19 03:12:51;;;;;;;22.60;15.70;;;;;;;0.82;81.90;99453.70;103436;1257;107173;-70
2024/04/19 03:15:19;;;;;;;21.70;15.80;;;;;;;0.81;82.03;99454.04;103076;1256;138555;-72
2024/04/19 03:17:46;;;;;;;24.10;15.90;;;;;;;0.81;82.05;99451.30;103235;1260;111319;-71
2024/04/19 03:20:12;;;;;;;24.90;15.80;;;;;;;0.79;82.02;99449.09;103095;1260;138755;-71
2024/04/19 03:22:39;;;;;;;22.80;16.20;;;;;;;0.78;82.06;99443.63;103305;1257;99270;-71
2024/04/19 03:25:06;;;;;;;25.20;16.60;;;;;;;0.78;82.16;99441.73;103223;1256;107765;-71
2024/04/19 03:27:32;;;;;;;23.60;16.50;;;;;;;0.80;82.22;99439.50;103175;1255;138514;-72
2024/04/19 03:29:59;;;;;;;23.70;16.50;;;;;;;0.79;82.15;99435.40;103283;1256;114184;-72
2024/04/19 03:32:25;;;;;;;21.80;16.60;;;;;;;0.82;82.17;99438.80;103043;1259;138731;-71
2024/04/19 03:34:53;;;;;;;27.10;17.40;;;;;;;0.82;82.15;99441.55;103273;1263;99148;-71
2024/04/19 03:37:19;;;;;;;23.80;15.90;;;;;;;0.82;82.19;99433.16;103219;1257;108580;-72
2024/04/19 03:39:46;;;;;;;25.70;17.10;;;;;;;0.83;82.28;99430.41;103113;1258;138542;-71
2024/04/19 03:42:14;;;;;;;23.50;16.20;;;;;;;0.85;82.31;99426.30;103255;1256;113529;-71
2024/04/19 03:47:24;;;;;;;25.20;18.20;;;;;;;0.89;82.51;99429.52;103094;1256;99695;-72
2024/04/19 03:49:51;;;;;;;27.00;18.40;;;;;;;0.90;82.63;99426.61;103264;1257;106638;-71
2024/04/19 03:52:17;;;;;;;31.70;19.40;;;;;;;0.92;82.68;99422.84;103231;1260;99149;-72
2024/04/19 03:54:44;;;;;;;25.80;18.90;;;;;;;0.95;82.90;99420.41;103266;1256;112069;-72
2024/04/19 03:57:10;;;;;;;24.80;18.80;;;;;;;0.99;83.20;99421.24;103308;1257;138649;-72
2024/04/19 03:59:39;;;;;;;28.30;19.40;;;;;;;1.05;83.14;99430.45;103391;1257;99155;-72
2024/04/19 04:02:14;;;;;;;29.10;20.40;;;;;;;1.11;83.12;99423.56;103228;1259;138723;-72
2024/04/19 04:04:52;;;;;;;27.00;20.20;;;;;;;1.20;83.32;99419.20;102536;1256;1005786;-72
2024/04/19 04:07:19;;;;;;;29.60;20.90;;;;;;;1.29;83.31;99421.04;102608;1259;1003812;-72
2024/04/19 04:09:45;;;;;;;28.60;20.10;;;;;;;1.38;83.28;99421.45;103030;1259;138950;-72
2024/04/19 04:12:12;;;;;;;28.30;20.10;;;;;;;1.47;83.22;99422.25;103410;1260;99176;-72
2024/04/19 04:14:38;;;;;;;27.40;20.10;;;;;;;1.58;83.18;99421.63;103136;1260;138893;-72
2024/04/19 04:17:05;;;;;;;26.40;19.40;;;;;;;1.66;83.11;99422.08;103260;1260;99860;-73
2024/04/19 04:19:31;;;;;;;27.90;19.70;;;;;;;1.76;83.03;99420.95;103278;1257;114334;-73
2024/04/19 04:21:58;;;;;;;26.30;19.70;;;;;;;1.87;83.10;99422.89;103131;1260;139585;-74
2024/04/19 04:24:24;;;;;;;28.80;19.90;;;;;;;1.98;82.90;99418.16;103274;1259;99662;-71
2024/04/19 04:26:51;;;;;;;27.20;19.30;;;;;;;2.08;82.84;99417.70;103065;1257;139558;-72
2024/04/19 04:29:16;;;;;;;;;;;;;;;2.16;82.53;99424.66;103195;1262;99193;-71
2024/04/19 04:31:42;;;;;;;28.00;18.90;;;;;;;2.17;82.44;99422.23;103189;1261;112376;-74
2024/04/19 04:34:09;;;;;;;27.80;19.70;;;;;;;2.20;82.29;99419.45;103020;1256;138460;-73
2024/04/19 04:36:35;;;;;;;28.90;19.70;;;;;;;2.21;82.10;99416.70;103101;1260;99052;-71
2024/04/19 04:39:02;;;;;;;26.10;19.20;;;;;;;2.21;82.11;99417.56;103049;1262;138918;-72
2024/04/19 04:41:28;;;;;;;27.70;19.80;;;;;;;2.24;81.94;99421.29;103144;1260;99157;-73
2024/04/19 04:43:53;;;;;;;;;;;;;;;2.28;82.04;99424.32;103020;1257;138832;-72
2024/04/19 04:46:20;;;;;;;27.00;19.10;;;;;;;2.28;81.82;99422.27;103119;1257;109543;-72
2024/04/19 04:48:44;;;;;;;;;;;;;;;2.29;81.72;99414.37;103234;1256;99170;-72
2024/04/19 04:51:11;;;;;;;26.60;18.20;;;;;;;2.28;81.61;99414.54;103189;1259;125655;-72
2024/04/19 04:53:37;;;;;;;27.50;19.70;;;;;;;2.28;81.44;99412.66;103175;1258;99122;-72
2024/04/19 04:56:02;;;;;;;;;;;;;;;2.51;82.34;99410.14;103236;1256;139356;-73
2024/04/19 04:58:29;;;;;;;24.40;16.80;;;;;;;4.20;83.43;99407.00;103539;1259;108895;-72
2024/04/19 05:00:56;;;;;;;;;;;;;;;5.96;80.60;99403.42;103191;1258;99155;-73
2024/04/19 05:03:21;;;;;;;;;;;;;;;7.77;77.50;99397.23;103136;1259;125238;-72
2024/04/19 05:05:47;;;;;;;17.80;13.10;;;;;;;9.30;73.75;99387.50;103267;1259;99165;-73
2024/04/19 05:08:12;;;;;;;;;;;;;;;10.12;69.11;99382.34;103311;1258;139392;-73
2024/04/19 05:10:38;;;;;;;18.20;13.30;;;;;;;9.84;66.47;99374.69;103387;1258;107940;-73
2024/04/19 05:13:05;;;;;;;18.60;13.60;;;;;;;9.83;66.34;99370.42;103241;1257;99068;-72
2024/04/19 05:15:32;;;;;;;19.10;12.70;;;;;;;11.16;66.30;99364.96;102956;1260;137857;-72
2024/04/19 05:17:58;;;;;;;16.40;12.00;;;;;;;12.15;62.49;99361.75;103340;1257;99155;-73
2024/04/19 05:20:26;;;;;;;16.30;12.40;;;;;;;11.77;60.62;99360.79;103155;1258;138149;-73
2024/04/19 05:22:52;;;;;;;14.30;11.40;;;;;;;11.13;59.71;99364.80;103173;1257;107124;-73
2024/04/19 05:25:19;;;;;;;;;;;;;;;10.52;59.62;99366.48;103295;1257;99151;-73
2024/04/19 05:27:45;;;;;;;19.00;12.20;;;;;;;10.00;59.80;99369.48;103062;1259;124334;-73
2024/04/19 05:30:12;;;;;;;22.30;12.90;;;;;;;10.51;61.57;99366.32;103195;1259;99156;-73
2024/04/19 05:32:39;;;;;;;16.70;11.40;;;;;;;11.92;59.87;99367.33;102931;1257;139757;-72
2024/04/19 05:35:06;;;;;;;14.00;10.60;;;;;;;12.60;57.56;99363.38;103268;1263;107476;-72
2024/04/19 05:37:33;;;;;;;13.10;10.90;;;;;;;12.57;57.25;99362.11;103223;1260;99184;-74
2024/04/19 05:40:00;;;;;;;15.40;11.50;;;;;;;12.58;56.33;99362.60;103120;1260;138740;-73
2024/04/19 05:42:27;;;;;;;12.60;10.00;;;;;;;12.01;55.82;99361.46;103254;1260;99062;-73
2024/04/19 05:44:55;;;;;;;12.30;10.20;;;;;;;11.38;55.88;99357.30;103527;1258;138244;-73
2024/04/19 05:47:21;;;;;;;15.90;10.50;;;;;;;10.81;56.16;99356.94;103356;1258;108517;-73
2024/04/19 05:49:46;;;;;;;;;;;;;;;10.23;56.43;99355.64;103357;1256;99205;-74
2024/04/19 05:52:13;;;;;;;14.80;10.50;;;;;;;9.62;57.20;99351.15;103269;1260;124015;-72
2024/04/19 05:54:39;;;;;;;13.90;10.90;;;;;;;9.19;58.25;99347.42;103541;1257;99174;-73
2024/04/19 05:57:06;;;;;;;14.80;11.40;;;;;;;8.89;59.14;99348.44;103756;1257;138695;-74
2024/04/19 05:59:33;;;;;;;16.50;10.80;;;;;;;8.61;59.30;99349.02;103555;1259;107565;-80
2024/04/19 06:02:00;;;;;;;19.20;11.30;;;;;;;8.20;59.91;99346.20;103550;1261;138349;-73
2024/04/19 06:04:35;;;;;;;13.00;9.80;;;;;;;7.90;60.86;99343.98;103692;1257;107769;-72
2024/04/19 06:07:00;;;;;;;;;;;;;;;7.70;61.46;99346.43;103348;1257;99182;-73
2024/04/19 06:09:27;;;;;;;12.50;10.20;;;;;;;7.53;62.16;99348.05;103260;1260;123842;-73
2024/04/19 06:11:51;;;;;;;;;;;;;;;7.40;62.64;99346.09;103278;1260;107427;-73
2024/04/19 06:14:18;;;;;;;14.50;10.20;;;;;;;7.28;63.28;99340.95;103173;1261;125554;-75
2024/04/19 06:16:44;;;;;;;14.30;9.50;;;;;;;7.20;63.57;99332.05;103643;1259;106656;-74
2024/04/19 06:19:10;;;;;;;;;;;;;;;7.18;63.86;99332.46;103472;1256;99169;-74
2024/04/19 06:21:37;;;;;;;12.80;9.00;;;;;;;7.16;64.09;99333.72;103318;1257;124481;-73
2024/04/19 06:24:03;;;;;;;12.20;9.70;;;;;;;7.24;64.51;99334.00;103197;1257;107866;-74
2024/04/19 06:26:30;;;;;;;15.20;9.80;;;;;;;7.44;64.86;99332.48;103177;1257;139222;-72
2024/04/19 06:28:56;;;;;;;12.40;9.00;;;;;;;7.94;65.19;99328.29;104007;1257;106951;-71
2024/04/19 06:31:21;;;;;;;;;;;;;;;8.67;64.93;99319.30;103295;1260;99145;-72
2024/04/19 06:33:48;;;;;;;9.50;7.70;;;;;;;9.51;63.22;99308.59;103025;1260;126419;-72
2024/04/19 06:36:15;;;;;;;10.00;7.70;;;;;;;9.81;62.11;99311.80;103575;1257;107723;-73
2024/04/19 06:38:41;;;;;;;13.50;8.20;;;;;;;9.73;61.48;99305.73;104460;1255;138491;-74
2024/04/19 06:41:08;;;;;;;10.90;8.10;;;;;;;9.54;61.55;99309.16;104511;1257;106833;-72
2024/04/19 06:43:33;;;;;;;;;;;;;;;9.28;61.55;99300.20;104574;1256;97163;-74
2024/04/19 06:46:00;;;;;;;9.10;7.10;;;;;;;9.02;61.53;99299.03;104353;1257;127202;-74
2024/04/19 06:48:26;;;;;;;13.00;7.90;;;;;;;8.76;61.86;99301.11;104375;1257;107161;-75
2024/04/19 06:50:52;;;;;;;10.30;7.20;;;;;;;8.57;62.24;99300.00;103178;1257;137805;-76
2024/04/19 06:53:18;;;;;;;;;;;;;;;8.35;62.32;99298.57;103141;1256;107817;-78
2024/04/19 06:55:44;;;;;;;10.90;7.00;;;;;;;8.13;62.87;99302.67;103175;1258;99254;-78
2024/04/19 06:58:09;;;;;;;;;;;;;;;8.07;63.35;99304.26;103016;1260;138095;-78
2024/04/19 07:00:39;;;;;;;9.10;6.60;;;;;;;8.07;63.54;99301.66;103095;1257;107744;-73
2024/04/19 07:03:25;;;;;;;10.20;6.80;;;;;;;8.11;63.59;99298.94;103111;1258;138606;-74
2024/04/19 07:05:52;;;;;;;9.10;5.80;;;;;;;8.18;63.54;99292.07;103160;1258;108688;-75
2024/04/19 07:08:19;;;;;;;8.30;6.20;;;;;;;8.34;63.49;99278.85;103084;1260;138441;-75
2024/04/19 07:10:45;;;;;;;9.40;6.00;;;;;;;8.41;63.07;99276.50;103195;1256;112298;-76
2024/04/19 07:13:10;;;;;;;;;;;;;;;8.37;63.05;99272.86;103038;1261;106807;-77
2024/04/19 07:15:36;;;;;;;7.50;5.30;;;;;;;8.53;63.22;99271.38;102225;1257;1002938;-75
2024/04/19 07:18:02;;;;;;;;;;;;;;;8.96;62.83;99261.13;103004;1258;107723;-75
2024/04/19 07:20:28;;;;;;;7.30;5.40;;;;;;;9.28;61.97;99261.17;103009;1256;125555;-75
2024/04/19 07:22:54;;;;;;;;;;;;;;;9.74;61.53;99260.55;104369;1257;112739;-75
2024/04/19 07:25:20;;;;;;;6.20;5.10;;;;;;;10.48;60.50;99257.52;104483;1256;107387;-76
2024/04/19 07:27:46;;;;;;;7.10;4.00;;;;;;;10.74;59.32;99252.95;103209;1260;138850;-75
2024/04/19 07:30:14;;;;;;;6.00;4.30;;;;;;;10.64;58.10;99250.66;104310;1255;107049;-75
2024/04/19 07:32:40;;;;;;;8.00;4.70;;;;;;;10.44;57.41;99251.44;103238;1258;137874;-76
2024/04/19 07:35:06;;;;;;;;;;;;;;;10.13;56.58;99258.09;103188;1260;113385;-75
2024/04/19 07:37:32;;;;;;;6.40;4.10;;;;;;;9.87;57.04;99252.83;103128;1261;106429;-72
2024/04/19 07:39:57;;;;;;;;;;;;;;;9.74;57.66;99250.18;104058;1257;137731;-73
2024/04/19 07:42:23;;;;;;;7.00;4.50;;;;;;;9.74;57.58;99251.71;104018;1257;107823;-71
2024/04/19 07:44:48;;;;;;;;;;;;;;;9.92;57.45;99250.73;103822;1257;137832;-74
2024/04/19 07:47:15;;;;;;;6.60;4.40;;;;;;;10.10;56.94;99248.50;103878;1257;113587;-73
2024/04/19 07:49:40;;;;;;;;;;;;;;;10.39;56.97;99241.61;103269;1257;106769;-72
2024/04/19 07:52:07;;;;;;;7.10;5.10;;;;;;;10.80;56.47;99246.06;103688;1257;124267;-75
2024/04/19 07:54:33;;;;;;;7.80;5.60;;;;;;;11.39;55.45;99244.70;103068;1260;107349;-71
2024/04/19 07:57:00;;;;;;;9.40;5.90;;;;;;;11.76;53.70;99243.43;103140;1257;138996;-72
2024/04/19 07:59:26;;;;;;;9.40;6.40;;;;;;;11.85;53.62;99242.27;103279;1258;113108;-73
2024/04/19 08:01:53;;;;;;;9.70;6.10;;;;;;;11.84;53.25;99245.66;103287;1257;108225;-73
2024/04/19 08:04:20;;;;;;;11.60;6.50;;;;;;;11.59;53.05;99239.80;103636;1256;99263;-73
2024/04/19 08:06:46;;;;;;;11.00;7.00;;;;;;;11.28;53.52;99240.52;103145;1257;107497;-73
2024/04/19 08:09:11;;;;;;;;;;;;;;;11.00;53.87;99241.98;103060;1259;138615;-73
2024/04/19 08:11:40;;;;;;;10.70;7.40;;;;;;;11.17;54.32;99237.64;103183;1258;112621;-72
2024/04/19 08:14:05;;;;;;;;;;;;;;;11.28;53.95;99236.54;103265;1257;138234;-76
2024/04/19 08:16:31;;;;;;;11.10;7.40;;;;;;;11.25;54.03;99243.10;103380;1256;99339;-75
2024/04/19 08:18:58;;;;;;;8.00;6.90;;;;;;;11.35;53.94;99236.52;103345;1258;109004;-76
2024/04/19 08:21:24;;;;;;;10.00;7.60;;;;;;;11.30;54.00;99237.45;103244;1256;137977;-70
2024/04/19 08:23:49;;;;;;;;;;;;;;;11.35;53.64;99233.37;103250;1256;112636;-72
2024/04/19 08:26:16;;;;;;;10.00;7.80;;;;;;;11.55;54.02;99226.05;103225;1258;126078;-72
2024/04/19 08:28:40;;;;;;;;;;;;;;;11.82;53.78;99223.30;103368;1260;99138;-74
2024/04/19 08:31:07;;;;;;;9.40;6.90;;;;;;;11.91;53.65;99212.37;103315;1256;108262;-72
2024/04/19 08:33:34;;;;;;;12.60;8.00;;;;;;;11.92;53.38;99209.34;103350;1256;138452;-74
2024/04/19 08:36:01;;;;;;;10.50;6.90;;;;;;;11.77;53.48;99217.63;103267;1259;113269;-72
2024/04/19 08:38:27;;;;;;;8.60;7.70;;;;;;;11.67;53.54;99215.90;103095;1258;138395;-74
2024/04/19 08:40:57;;;;;;;9.30;6.90;;;;;;;11.52;54.01;99217.02;103224;1257;99158;-73
2024/04/19 08:43:24;;;;;;;9.60;7.40;;;;;;;11.35;53.96;99214.92;104486;1256;106778;-72
2024/04/19 08:45:53;;;;;;;10.20;7.10;;;;;;;11.13;54.01;99218.67;104480;1256;139354;-72
2024/04/19 08:48:19;;;;;;;7.90;6.60;;;;;;;10.96;54.32;99213.14;104612;1256;112209;-73
2024/04/19 08:50:47;;;;;;;8.60;7.30;;;;;;;11.08;54.88;99207.97;104298;1255;138454;-73
2024/04/19 08:53:16;;;;;;;10.50;6.80;;;;;;;11.36;54.86;99204.61;103248;1257;99333;-72
2024/04/19 08:55:44;;;;;;;10.20;7.10;;;;;;;11.81;54.86;99198.21;103201;1256;108415;-73
2024/04/19 08:58:10;;;;;;;12.60;7.20;;;;;;;12.85;55.10;99195.89;103204;1257;138163;-72
2024/04/19 09:00:37;;;;;;;9.40;5.70;;;;;;;14.20;53.44;99197.44;103263;1257;112423;-74
2024/04/19 09:03:05;;;;;;;9.80;6.00;;;;;;;14.66;50.99;99193.86;103087;1259;137909;-73
2024/04/19 09:05:31;;;;;;;7.80;5.60;;;;;;;15.03;50.47;99196.59;104371;1256;97300;-71
2024/04/19 09:07:58;;;;;;;7.00;5.70;;;;;;;15.07;49.77;99193.50;103201;1256;137879;-71
2024/04/19 09:10:25;;;;;;;7.90;5.70;;;;;;;14.91;49.18;99194.77;103268;1259;99168;-72
2024/04/19 09:12:51;;;;;;;7.20;5.50;;;;;;;14.63;49.56;99192.41;103348;1257;113191;-72
2024/04/19 09:15:18;;;;;;;6.60;5.70;;;;;;;14.28;49.12;99189.95;103012;1259;138392;-72
2024/04/19 09:17:46;;;;;;;6.60;5.90;;;;;;;13.84;49.64;99193.26;103302;1256;99156;-72
2024/04/19 09:20:13;;;;;;;6.10;5.40;;;;;;;13.37;49.80;99189.52;103255;1257;137929;-72
2024/04/19 09:22:39;;;;;;;6.90;5.70;;;;;;;12.93;50.52;99187.21;103286;1259;99042;-75
2024/04/19 09:25:06;;;;;;;6.60;5.00;;;;;;;12.78;50.95;99183.90;103333;1260;113555;-75
2024/04/19 09:27:34;;;;;;;10.10;4.70;;;;;;;12.63;51.25;99178.68;103352;1255;138097;-75
2024/04/19 09:30:02;;;;;;;6.90;5.30;;;;;;;12.62;51.47;99179.98;103526;1255;99524;-74
2024/04/19 09:32:29;;;;;;;7.90;5.10;;;;;;;12.71;51.29;99178.38;103447;1255;139252;-74
2024/04/19 09:34:56;;;;;;;5.80;4.60;;;;;;;12.89;51.10;99172.98;103301;1256;99191;-77
2024/04/19 09:37:26;;;;;;;6.50;4.80;;;;;;;13.85;51.23;99168.92;103230;1256;112639;-75
2024/04/19 09:39:53;;;;;;;6.90;4.50;;;;;;;14.97;50.36;99165.45;104348;1254;138498;-79
2024/04/19 09:42:20;;;;;;;6.40;4.50;;;;;;;15.99;49.28;99157.85;104511;1255;97034;-65
2024/04/19 09:44:51;;;;;;;6.50;4.40;;;;;;;17.02;47.99;99158.67;104470;1256;137704;-68
2024/04/19 09:47:18;;;;;;;7.00;3.80;;;;;;;17.80;46.46;99151.58;104401;1256;97177;-68
2024/04/19 09:49:47;;;;;;;6.40;4.00;;;;;;;17.87;43.91;99148.11;104319;1255;111415;-68
2024/04/19 09:52:19;;;;;;;5.10;3.50;;;;;;;17.56;43.09;99144.52;104280;1256;138636;-68
2024/04/19 09:54:52;;;;;;;5.10;3.90;;;;;;;17.09;42.60;99146.77;103479;1256;99761;-70
2024/04/19 09:57:21;;;;;;;4.80;3.50;;;;;;;16.49;42.44;99142.27;103121;1255;139277;-70
2024/04/19 09:59:49;;;;;;;3.50;3.00;;;;;;;16.19;42.96;99140.83;102959;1256;99180;-70
2024/04/19 10:02:17;;;;;;;6.00;3.30;;;;;;;16.48;43.15;99135.33;103081;1256;137851;-67
2024/04/19 10:04:58;;;;;;;6.10;3.10;;;;;;;17.00;42.44;99124.42;103150;1260;107245;-67
2024/04/19 10:07:28;;;;;;;5.40;3.10;;;;;;;17.48;42.40;99117.18;103235;1256;99268;-68
2024/04/19 10:09:56;;;;;;;7.30;2.60;;;;;;;17.96;41.27;99112.53;103276;1259;137671;-66
2024/04/19 10:12:23;;;;;;;7.40;3.10;;;;;;;18.40;40.56;99112.60;103367;1256;99945;-68
2024/04/19 10:14:50;;;;;;;9.10;3.20;;;;;;;18.79;40.09;99108.64;103239;1259;137741;-67
2024/04/19 10:17:18;;;;;;;6.00;3.00;;;;;;;19.19;39.70;99109.52;103276;1256;107806;-68
2024/04/19 10:19:46;;;;;;;11.40;3.20;;;;;;;19.38;38.87;99096.92;103319;1256;99205;-67
2024/04/19 10:22:23;;;;;;;8.40;3.30;;;;;;;19.25;37.54;99094.91;103369;1257;108115;-71
2024/04/19 10:25:00;;;;;;;5.80;2.60;;;;;;;18.93;36.98;99093.21;103288;1259;99205;-70
2024/04/19 10:27:29;;;;;;;6.20;2.70;;;;;;;18.34;36.33;99084.23;103266;1258;137808;-67
2024/04/19 10:29:57;;;;;;;4.80;2.80;;;;;;;18.30;37.83;99083.38;103377;1259;106920;-68
2024/04/19 10:32:25;;;;;;;6.80;2.80;;;;;;;18.59;37.75;99088.87;103044;1256;138161;-66
2024/04/19 10:34:54;;;;;;;5.30;2.50;;;;;;;18.31;36.99;99086.95;103232;1258;107837;-68
2024/04/19 10:37:21;;;;;;;6.10;2.60;;;;;;;17.87;37.14;99071.95;103321;1259;99232;-68
2024/04/19 10:39:48;;;;;;;4.00;2.50;;;;;;;17.76;37.31;99078.97;103204;1256;138247;-68
2024/04/19 10:42:20;;;;;;;5.90;2.50;;;;;;;17.86;36.93;99070.64;104526;1255;107355;-67
2024/04/19 10:44:48;;;;;;;6.00;2.40;;;;;;;17.91;36.40;99066.98;104457;1256;141090;-67
2024/04/19 10:47:16;;;;;;;5.20;2.30;;;;;;;17.92;36.07;99069.41;104517;1254;106186;-68
2024/04/19 10:49:45;;;;;;;5.50;2.50;;;;;;;17.91;36.61;99067.90;104604;1255;97349;-67
2024/04/19 10:52:13;;;;;;;6.60;2.30;;;;;;;18.03;36.95;99065.50;104501;1254;138838;-69
2024/04/19 10:54:40;;;;;;;5.70;2.20;;;;;;;18.07;36.19;99065.70;104083;1255;108145;-68
2024/04/19 10:57:07;;;;;;;7.10;2.40;;;;;;;17.71;35.50;99065.14;103739;1256;138211;-68
2024/04/19 10:59:34;;;;;;;4.50;2.10;;;;;;;17.44;35.53;99067.27;103416;1256;107883;-66
2024/04/19 11:02:02;;;;;;;5.80;2.20;;;;;;;17.39;35.92;99065.01;103119;1259;138140;-68
2024/04/19 11:04:30;;;;;;;5.30;2.10;;;;;;;17.40;35.62;99058.05;103279;1258;113415;-69
2024/04/19 11:06:57;;;;;;;2.90;1.80;;;;;;;17.36;34.64;99051.00;104498;1255;108054;-67
2024/04/19 11:09:24;;;;;;;4.70;2.00;;;;;;;17.29;34.60;99056.50;103126;1256;139865;-69
2024/04/19 11:11:51;;;;;;;6.70;2.10;;;;;;;17.22;34.54;99042.32;104236;1255;107327;-67
2024/04/19 11:14:22;;;;;;;6.00;2.10;;;;;;;17.13;34.70;99038.20;104468;1255;138989;-68
2024/04/19 11:16:49;;;;;;;5.60;1.90;;;;;;;17.14;35.32;99041.20;103302;1256;112883;-68
2024/04/19 11:19:17;;;;;;;6.30;2.10;;;;;;;17.26;35.07;99034.99;103248;1256;110239;-69
2024/04/19 11:21:45;;;;;;;4.80;2.10;;;;;;;17.23;35.01;99036.78;103451;1256;138747;-69
2024/04/19 11:24:12;;;;;;;3.70;1.80;;;;;;;17.16;34.63;99030.33;104005;1256;107294;-69
2024/04/19 11:26:39;;;;;;;3.60;2.00;;;;;;;16.92;34.41;99027.06;103367;1256;138038;-68
2024/04/19 11:29:07;;;;;;;3.80;2.00;;;;;;;16.64;34.51;99023.64;103425;1256;112376;-69